Wyocena, WI (53969)

5:02 PM CDT on September 20, 2014 (GMT -0500)
Pankow | Change Station
CLOSE
Current Station
Personal Weather Station
Location: Poynette, WI
Elevation: 886 ft
Nearby Weather Stations

Elev 886 ft 43.42 °N, 89.37 °W | Updated 1 minute ago

Mostly Cloudy
Mostly Cloudy
75.1 °F
Feels Like 77 °F
N
2.0
Wind Variable Wind from West
Gusts 8.0 mph

Today
High -- | Low -- °F
--% Chance of Precip.
Yesterday
High -- | Low -- °F
Precip. -- in
6:42 AM 6:58 PM
Waning Crescent, 10% visible
Pressure 29.75 in
Visibility 10.0 miles
Clouds Clear
Heat Index 77 °F
Dew Point 65 °F
Humidity 71%
Rainfall 0.13 in
Snow Depth Not available.
UV 2 out of 12
Pollen .60 out of 12
Air Quality Not available.
Flu Activity Not available.
METAR KDLL 202155Z AUTO 29008KT 10SM CLR 24/15 A2975 RMK AO2 T02420147

More Conditions Fewer Conditions

Pressure 29.75 in
Visibility 10.0 miles
Clouds Clear
Heat Index 77 °F
Dew Point 65 °F
Humidity 71%
Rainfall 0.13 in
Snow Depth Not available.
UV 2 out of 12
Pollen .60 out of 12
Air Quality Not available.
Flu Activity Not available.
METAR KDLL 202155Z AUTO 29008KT 10SM CLR 24/15 A2975 RMK AO2 T02420147

More Conditions Fewer Conditions

10-Day Weather Forecast

Almanac

Astronomy

Sep. 20, 2014 Rise Set
Actual Time 6:42 AM CDT 6:58 PM CDT
Civil Twilight 6:13 AM CDT 7:26 PM CDT
Nautical Twilight 5:39 AM CDT 8:00 PM CDT
Astronomical Twilight 5:05 AM CDT 8:34 PM CDT
Moon 3:16 AM CDT 5:05 PM CDT
Length of Visible Light 13h 13m
Length of Day
12h 15m
Tomorrow will be 2m 56s shorter.
Waning Crescent, 10% of the Moon is Illuminated
Today
Waning Crescent
Sep 24
New
Oct 1
First Quarter
Oct 8
Full
Oct 15
Last Quarter

Today's Extremes

State Highs State Lows

Community

WunderPhotos

Upload Photos

1,754,966 photos uploaded!

WunderBlogs® & News

Nearby

Snow Depth

Station Depth Elevation
No new snow has been reported.

Earthquake Activity

City Distance Mag. Time & Date
No recent earthquake activity has been reported nearby.
Minimum magnitude displayed is 2.5.

Coastal Water Temperatures

Place Temperature
No Stations Reporting

Nearby Weather Stations